^^
Saratoga-Weather Station Historical Data
Daily Summary for July 14, 2021 Units:  English    Metric   Both
Daily Weekly Monthly Yearly Custom
  High: Low: Average:
Temperature: 57.6 °F 41.4 °F 47.7 °F
Dew Point: 49.8 °F 40.3 °F 44.4 °F
Humidity: 97% 69% 89%
Wind Speed: 6mph 0mph 0.6mph
Wind Gust: 8mph - -
Wind- - West
Pressure: 30.4 in 30.2 in -
Precipitation: 0 in    
Historical Graphs
 
 
Tabular Data for July 14, 2021
Time Temperature Dew Point Pressure Wind Wind Speed Wind Gust Humidity Rainfall Rate (Hourly) solar
00:03 44.4 °F 42.4 °F 30.4 in Calm     93% 0 in 0 W/m2
00:08 44.2 °F 42.3 °F 30.4 in Calm     93% 0 in 0 W/m2
00:13 44.1 °F 42.1 °F 30.3 in Calm     93% 0 in 0 W/m2
00:18 43.9 °F 41.9 °F 30.4 in Calm     93% 0 in 0 W/m2
00:23 43.7 °F 41.7 °F 30.3 in Calm     93% 0 in 0 W/m2
00:28 43.5 °F 41.7 °F 30.3 in Calm     93% 0 in 0 W/m2
00:33 43.3 °F 41.7 °F 30.3 in Calm     94% 0 in 0 W/m2
00:38 43.3 °F 41.7 °F 30.3 in Calm     94% 0 in 0 W/m2
00:43 43.3 °F 41.7 °F 30.3 in Calm     94% 0 in 0 W/m2
00:48 43.3 °F 41.7 °F 30.3 in Calm     94% 0 in 0 W/m2
00:53 43.3 °F 41.7 °F 30.3 in Calm     94% 0 in 0 W/m2
00:58 43.2 °F 41.5 °F 30.3 in Calm     94% 0 in 0 W/m2
01:03 43.2 °F 41.5 °F 30.3 in Calm     94% 0 in 0 W/m2
01:08 43 °F 41.4 °F 30.3 in Calm     94% 0 in 0 W/m2
01:13 43 °F 41.4 °F 30.3 in Calm     94% 0 in 0 W/m2
01:18 43 °F 41.4 °F 30.3 in Calm     94% 0 in 0 W/m2
01:23 42.8 °F 41.5 °F 30.3 in Calm     95% 0 in 0 W/m2
01:28 42.6 °F 41.4 °F 30.3 in WSW 0.9 mph 2 mph 95% 0 in 0 W/m2
01:33 42.6 °F 41.4 °F 30.3 in Calm     95% 0 in 0 W/m2
01:38 42.6 °F 41.4 °F 30.3 in Calm     95% 0 in 0 W/m2
01:43 42.4 °F 41.2 °F 30.3 in Calm     95% 0 in 0 W/m2
01:48 42.4 °F 41.2 °F 30.3 in Calm     95% 0 in 0 W/m2
01:53 42.4 °F 41.2 °F 30.3 in Calm     95% 0 in 0 W/m2
01:58 42.4 °F 41.2 °F 30.3 in Calm     95% 0 in 0 W/m2
02:03 42.4 °F 41.2 °F 30.3 in Calm     95% 0 in 0 W/m2
02:08 42.3 °F 41 °F 30.3 in Calm     95% 0 in 0 W/m2
02:13 42.1 °F 40.8 °F 30.3 in Calm     95% 0 in 0 W/m2
02:18 41.9 °F 40.6 °F 30.3 in Calm     95% 0 in 0 W/m2
02:23 41.7 °F 40.5 °F 30.3 in Calm     95% 0 in 0 W/m2
02:28 41.7 °F 40.5 °F 30.3 in Calm     95% 0 in 0 W/m2
02:33 41.7 °F 40.5 °F 30.3 in Calm     95% 0 in 0 W/m2
02:38 41.7 °F 40.5 °F 30.3 in Calm     95% 0 in 0 W/m2
02:43 41.7 °F 40.5 °F 30.3 in Calm     95% 0 in 0 W/m2
02:48 41.7 °F 40.5 °F 30.3 in Calm     95% 0 in 0 W/m2
02:53 41.9 °F 40.8 °F 30.3 in Calm     96% 0 in 0 W/m2
02:58 42.1 °F 41 °F 30.3 in Calm     96% 0 in 0 W/m2
03:03 42.1 °F 41 °F 30.3 in Calm     96% 0 in 0 W/m2
03:08 42.3 °F 41.2 °F 30.3 in Calm     96% 0 in 0 W/m2
03:13 42.3 °F 41.2 °F 30.3 in Calm     96% 0 in 0 W/m2
03:18 42.3 °F 41.2 °F 30.3 in Calm     96% 0 in 0 W/m2
03:23 42.4 °F 41.4 °F 30.3 in Calm     96% 0 in 0 W/m2
03:28 42.4 °F 41.4 °F 30.3 in Calm     96% 0 in 0 W/m2
03:33 42.6 °F 41.5 °F 30.3 in Calm     96% 0 in 0 W/m2
03:38 42.6 °F 41.5 °F 30.3 in Calm     96% 0 in 0 W/m2
03:43 42.8 °F 41.7 °F 30.3 in Calm     96% 0 in 0 W/m2
03:48 42.8 °F 41.7 °F 30.3 in Calm     96% 0 in 0 W/m2
03:53 42.8 °F 41.7 °F 30.3 in Calm     96% 0 in 0 W/m2
03:58 43 °F 41.9 °F 30.3 in Calm     96% 0 in 0 W/m2
04:03 43 °F 41.9 °F 30.3 in Calm     96% 0 in 0 W/m2
04:08 43 °F 41.9 °F 30.3 in Calm     96% 0 in 0 W/m2
04:14 43.2 °F 42.1 °F 30.3 in Calm     96% 0 in 0 W/m2
04:19 43.2 °F 42.1 °F 30.3 in Calm     96% 0 in 0 W/m2
04:24 43.2 °F 42.1 °F 30.3 in Calm     96% 0 in 0 W/m2
04:29 43.2 °F 42.1 °F 30.3 in Calm     96% 0 in 0 W/m2
04:34 43.2 °F 42.1 °F 30.3 in Calm     96% 0 in 0 W/m2
04:39 43.2 °F 42.1 °F 30.3 in Calm     96% 0 in 0 W/m2
04:44 43.3 °F 42.3 °F 30.3 in Calm     96% 0 in 0 W/m2
04:49 43.3 °F 42.3 °F 30.3 in Calm     96% 0 in 0 W/m2
04:54 43.3 °F 42.3 °F 30.3 in Calm     96% 0 in 0 W/m2
04:59 43.2 °F 42.1 °F 30.3 in Calm     96% 0 in 0 W/m2
05:04 43.2 °F 42.1 °F 30.3 in Calm     96% 0 in 0 W/m2
05:09 43 °F 41.9 °F 30.3 in Calm     96% 0 in 0 W/m2
05:14 42.6 °F 41.5 °F 30.3 in Calm     96% 0 in 0 W/m2
05:19 42.6 °F 41.5 °F 30.3 in Calm     96% 0 in 0 W/m2
05:24 42.4 °F 41.4 °F 30.3 in Calm     96% 0 in 0 W/m2
05:29 42.4 °F 41.4 °F 30.3 in Calm     96% 0 in 0 W/m2
05:34 42.4 °F 41.4 °F 30.3 in Calm     96% 0 in 0 W/m2
05:39 42.3 °F 41.2 °F 30.3 in Calm     96% 0 in 0 W/m2
05:44 42.3 °F 41.2 °F 30.3 in Calm     96% 0 in 0 W/m2
05:49 42.1 °F 41 °F 30.3 in Calm     96% 0 in 0 W/m2
05:54 42.1 °F 41 °F 30.3 in Calm     96% 0 in 0 W/m2
05:59 41.9 °F 40.8 °F 30.3 in Calm     96% 0 in 0 W/m2
06:04 41.7 °F 40.6 °F 30.3 in Calm     96% 0 in 0 W/m2
06:09 41.5 °F 40.5 °F 30.3 in Calm     96% 0 in 0 W/m2
06:14 41.4 °F 40.3 °F 30.3 in Calm     96% 0 in 0 W/m2
06:19 41.4 °F 40.3 °F 30.3 in Calm     96% 0 in 0 W/m2
06:24 41.4 °F 40.3 °F 30.3 in Calm     96% 0 in 0 W/m2
06:29 41.4 °F 40.3 °F 30.3 in WSW 0.9 mph 1 mph 96% 0 in 0 W/m2
06:34 41.4 °F 40.3 °F 30.3 in Calm   1 mph 96% 0 in 0 W/m2
06:39 41.4 °F 40.3 °F 30.3 in Calm     96% 0 in 0 W/m2
06:44 41.4 °F 40.3 °F 30.3 in Calm   1 mph 96% 0 in 0 W/m2
06:49 41.5 °F 40.5 °F 30.3 in Calm     96% 0 in 0 W/m2
06:54 41.5 °F 40.5 °F 30.3 in Calm     96% 0 in 0 W/m2
06:59 41.7 °F 40.6 °F 30.3 in Calm     96% 0 in 0 W/m2
07:04 41.9 °F 40.8 °F 30.3 in Calm     96% 0 in 0 W/m2
07:09 42.1 °F 41 °F 30.3 in Calm     96% 0 in 0 W/m2
07:14 42.3 °F 41.2 °F 30.3 in Calm     96% 0 in 0 W/m2
07:19 42.3 °F 41.2 °F 30.3 in Calm     96% 0 in 0 W/m2
07:24 42.3 °F 41.2 °F 30.3 in WSW 0.9 mph 1 mph 96% 0 in 0 W/m2
07:29 42.3 °F 41.2 °F 30.3 in Calm     96% 0 in 0 W/m2
07:34 42.3 °F 41.2 °F 30.3 in Calm     96% 0 in 0 W/m2
07:39 42.3 °F 41.2 °F 30.3 in Calm     96% 0 in 0 W/m2
07:44 42.3 °F 41.2 °F 30.3 in Calm     96% 0 in 0 W/m2
07:49 42.3 °F 41.2 °F 30.3 in Calm     96% 0 in 0 W/m2
07:54 42.3 °F 41.2 °F 30.3 in Calm     96% 0 in 0 W/m2
07:59 42.3 °F 41.2 °F 30.3 in Calm     96% 0 in 5 W/m2
08:04 42.3 °F 41.2 °F 30.3 in Calm     96% 0 in 7 W/m2
08:09 42.3 °F 41.2 °F 30.3 in WSW 0.9 mph 2 mph 96% 0 in 9 W/m2
08:14 42.3 °F 41.2 °F 30.3 in Calm   2 mph 96% 0 in 9 W/m2
08:19 42.3 °F 41.2 °F 30.3 in Calm     96% 0 in 11 W/m2
08:24 42.3 °F 41.2 °F 30.3 in Calm   2 mph 96% 0 in 12 W/m2
08:29 42.1 °F 41 °F 30.3 in Calm     96% 0 in 14 W/m2
08:34 41.7 °F 40.6 °F 30.3 in Calm   2 mph 96% 0 in 21 W/m2
08:39 41.7 °F 40.6 °F 30.3 in Calm     96% 0 in 26 W/m2
08:44 41.7 °F 40.6 °F 30.3 in Calm   1 mph 96% 0 in 32 W/m2
08:49 41.7 °F 40.6 °F 30.3 in SSW 0.9 mph 2 mph 96% 0 in 35 W/m2
08:54 41.9 °F 40.8 °F 30.3 in Calm   1 mph 96% 0 in 44 W/m2
08:59 42.1 °F 41 °F 30.3 in Calm   2 mph 96% 0 in 46 W/m2
09:04 42.3 °F 41.5 °F 30.3 in WNW 0.9 mph 2 mph 97% 0 in 54 W/m2
09:09 42.3 °F 41.5 °F 30.3 in Calm   1 mph 97% 0 in 62 W/m2
09:14 42.4 °F 41.7 °F 30.3 in Calm     97% 0 in 72 W/m2
09:19 42.4 °F 41.4 °F 30.3 in WSW 0.9 mph 2 mph 96% 0 in 77 W/m2
09:24 42.6 °F 41.5 °F 30.3 in Calm     96% 0 in 74 W/m2
09:29 42.8 °F 42.1 °F 30.3 in Calm   2 mph 97% 0 in 74 W/m2
09:34 43.2 °F 42.4 °F 30.3 in Calm     97% 0 in 72 W/m2
09:39 43.3 °F 42.6 °F 30.3 in Calm     97% 0 in 79 W/m2
09:44 43.5 °F 42.8 °F 30.3 in Calm     97% 0 in 93 W/m2
09:49 43.9 °F 43.2 °F 30.3 in Calm     97% 0 in 97 W/m2
09:54 44.1 °F 43.3 °F 30.3 in Calm   1 mph 97% 0 in 95 W/m2
10:00 44.2 °F 43.5 °F 30.3 in Calm     97% 0 in 84 W/m2
10:05 44.4 °F 43.7 °F 30.3 in Calm     97% 0 in 84 W/m2
10:10 44.6 °F 43.9 °F 30.3 in WSW 0.9 mph 2 mph 97% 0 in 104 W/m2
10:15 45 °F 44.2 °F 30.3 in Calm   2 mph 97% 0 in 90 W/m2
10:20 45.1 °F 44.4 °F 30.3 in Calm     97% 0 in 111 W/m2
10:25 45.5 °F 44.8 °F 30.3 in Calm   1 mph 97% 0 in 98 W/m2
10:30 46 °F 45.3 °F 30.3 in Calm     97% 0 in 267 W/m2
10:35 46.8 °F 46 °F 30.3 in Calm     97% 0 in 313 W/m2
10:40 47.1 °F 46.4 °F 30.3 in Calm     97% 0 in 325 W/m2
10:45 47.8 °F 46.9 °F 30.3 in WSW 2 mph 2 mph 97% 0 in 329 W/m2
10:50 48 °F 47.1 °F 30.3 in WNW 2 mph 3 mph 97% 0 in 330 W/m2
10:55 48.4 °F 47.5 °F 30.3 in WNW 0.9 mph 3 mph 97% 0 in 341 W/m2
11:00 48.7 °F 47.7 °F 30.3 in WSW 2.9 mph 4 mph 96% 0 in 352 W/m2
11:05 49.5 °F 48 °F 30.3 in West 2.9 mph 4 mph 95% 0 in 364 W/m2
11:10 49.8 °F 47.8 °F 30.3 in West 2 mph 7 mph 93% 0 in 309 W/m2
11:15 50.4 °F 47.8 °F 30.3 in WNW 2 mph 3 mph 91% 0 in 396 W/m2
11:20 50.7 °F 47.7 °F 30.3 in NW 4 mph 6 mph 89% 0 in 323 W/m2
11:25 51.1 °F 47.7 °F 30.3 in WNW 4.9 mph 5 mph 88% 0 in 172 W/m2
11:30 51.3 °F 47.3 °F 30.3 in NW 2 mph 4 mph 86% 0 in 148 W/m2
11:35 51.6 °F 47.3 °F 30.3 in WNW 2.9 mph 3 mph 85% 0 in 422 W/m2
11:40 52 °F 47.3 °F 30.3 in SW 4 mph 4 mph 84% 0 in 427 W/m2
11:45 52.2 °F 47.1 °F 30.3 in WSW 0.9 mph 2 mph 83% 0 in 438 W/m2
11:50 52.3 °F 47.3 °F 30.3 in SW 2 mph 4 mph 83% 0 in 56 W/m2
11:55 52.3 °F 46.9 °F 30.3 in SW 2 mph 3 mph 82% 0 in 49 W/m2
12:00 52.3 °F 46.9 °F 30.3 in Calm   4 mph 82% 0 in 53 W/m2
12:05 52.5 °F 47.1 °F 30.3 in WNW 0.9 mph 7 mph 82% 0 in 47 W/m2
12:10 52.5 °F 47.1 °F 30.3 in WSW 2 mph 6 mph 82% 0 in 46 W/m2
12:15 52.9 °F 47.3 °F 30.3 in WSW 2 mph 6 mph 81% 0 in 46 W/m2
12:20 53.1 °F 47.3 °F 30.3 in WNW 2 mph 4 mph 81% 0 in 46 W/m2
12:25 53.1 °F 47.3 °F 30.3 in West 4 mph 4 mph 81% 0 in 46 W/m2
12:30 53.2 °F 47.5 °F 30.3 in NNW 0.9 mph 3 mph 81% 0 in 144 W/m2
12:35 53.4 °F 47.5 °F 30.3 in WNW 4 mph 7 mph 80% 0 in 107 W/m2
12:40 53.6 °F 47.3 °F 30.3 in NNW 2.9 mph 7 mph 79% 0 in 272 W/m2
12:45 54 °F 46.9 °F 30.3 in WNW 4.9 mph 5 mph 77% 0 in 97 W/m2
12:50 54 °F 47.3 °F 30.3 in WNW 2.9 mph 8 mph 78% 0 in 441 W/m2
12:55 54.3 °F 47.7 °F 30.3 in West 2 mph 7 mph 78% 0 in 513 W/m2
13:00 54.3 °F 47.7 °F 30.3 in West 6 mph 8 mph 78% 0 in 517 W/m2
13:05 54.5 °F 47.5 °F 30.3 in WSW 0.9 mph 7 mph 77% 0 in 348 W/m2
13:10 54.3 °F 47.3 °F 30.3 in West 0.9 mph 3 mph 77% 0 in 199 W/m2
13:15 54.3 °F 47.3 °F 30.3 in WSW 4 mph 6 mph 77% 0 in 51 W/m2
13:20 54.3 °F 47.3 °F 30.3 in WSW 4 mph 7 mph 77% 0 in 56 W/m2
13:25 54.7 °F 47.7 °F 30.3 in WSW 4.9 mph 5 mph 77% 0 in 58 W/m2
13:30 54.7 °F 47.7 °F 30.3 in SW 2.9 mph 7 mph 77% 0 in 216 W/m2
13:35 54.9 °F 48.2 °F 30.3 in NW 2 mph 3 mph 78% 0 in 520 W/m2
13:40 55.2 °F 48.2 °F 30.3 in West 6 mph 6 mph 77% 0 in 492 W/m2
13:45 55.2 °F 48.2 °F 30.3 in WNW 4.9 mph 5 mph 77% 0 in 53 W/m2
13:50 55.2 °F 48.2 °F 30.3 in WNW 2 mph 2 mph 77% 0 in 49 W/m2
13:55 55.2 °F 48.2 °F 30.3 in NW 4 mph 6 mph 77% 0 in 49 W/m2
14:01 55.6 °F 48.6 °F 30.3 in WSW 2.9 mph 3 mph 77% 0 in 51 W/m2
14:06 55.8 °F 48.7 °F 30.3 in NW 2 mph 5 mph 77% 0 in 53 W/m2
14:11 55.9 °F 48.6 °F 30.3 in WSW 4.9 mph 5 mph 76% 0 in 51 W/m2
14:16 55.9 °F 48.2 °F 30.3 in Calm   2 mph 75% 0 in 51 W/m2
14:21 55.9 °F 48.6 °F 30.3 in NW 0.9 mph 2 mph 76% 0 in 51 W/m2
14:26 55.9 °F 47.5 °F 30.3 in West 2 mph 6 mph 73% 0 in 56 W/m2
14:31 56.3 °F 48.2 °F 30.3 in NE 2 mph 4 mph 74% 0 in 54 W/m2
14:36 56.7 °F 48 °F 30.3 in NNW 2 mph 4 mph 73% 0 in 53 W/m2
14:41 56.8 °F 47.8 °F 30.3 in WNW 4 mph 4 mph 72% 0 in 51 W/m2
14:46 57 °F 48 °F 30.3 in WNW 0.9 mph 3 mph 72% 0 in 51 W/m2
14:51 57 °F 48 °F 30.3 in WNW 0.9 mph 2 mph 72% 0 in 51 W/m2
14:56 56.8 °F 47.5 °F 30.3 in WSW 2 mph 5 mph 71% 0 in 51 W/m2
15:01 56.8 °F 47.5 °F 30.3 in WSW 2 mph 3 mph 71% 0 in 51 W/m2
15:06 57 °F 47.7 °F 30.3 in WNW 0.9 mph 2 mph 71% 0 in 49 W/m2
15:11 57 °F 47.7 °F 30.3 in West 2 mph 4 mph 71% 0 in 54 W/m2
15:16 57 °F 47.3 °F 30.3 in West 2 mph 2 mph 70% 0 in 77 W/m2
15:21 57.4 °F 47.7 °F 30.3 in WSW 2.9 mph 4 mph 70% 0 in 111 W/m2
15:26 57.4 °F 47.3 °F 30.3 in WNW 2.9 mph 4 mph 69% 0 in 49 W/m2
15:31 57.6 °F 47.5 °F 30.3 in West 0.9 mph 3 mph 69% 0 in 53 W/m2
15:36 57.6 °F 47.5 °F 30.3 in West 2 mph 4 mph 69% 0 in 47 W/m2
15:41 57.6 °F 47.5 °F 30.3 in West 2 mph 3 mph 69% 0 in 49 W/m2
15:46 57.4 °F 47.7 °F 30.3 in WNW 0.9 mph 4 mph 70% 0 in 49 W/m2
15:51 57.4 °F 47.7 °F 30.3 in WNW 0.9 mph 2 mph 70% 0 in 49 W/m2
15:56 57.4 °F 47.3 °F 30.3 in West 0.9 mph 2 mph 69% 0 in 49 W/m2
16:01 57.2 °F 47.5 °F 30.3 in West 0.9 mph 2 mph 70% 0 in 44 W/m2
16:06 57 °F 48 °F 30.3 in West 0.9 mph 3 mph 72% 0 in 139 W/m2
16:11 57.4 °F 48 °F 30.3 in Calm   2 mph 71% 0 in 46 W/m2
16:16 57.4 °F 48 °F 30.3 in West 0.9 mph 3 mph 71% 0 in 42 W/m2
16:21 57.2 °F 48.2 °F 30.2 in WSW 2 mph 3 mph 72% 0 in 42 W/m2
16:26 57 °F 48.4 °F 30.2 in Calm     73% 0 in 39 W/m2
16:31 57 °F 48.4 °F 30.2 in Calm   2 mph 73% 0 in 42 W/m2
16:36 57.2 °F 48.2 °F 30.2 in WSW 2 mph 3 mph 72% 0 in 241 W/m2
16:41 57.4 °F 48.4 °F 30.2 in WSW 2 mph 3 mph 72% 0 in 46 W/m2
16:46 57.6 °F 48.6 °F 30.2 in Calm   1 mph 72% 0 in 113 W/m2
16:51 57.6 °F 48.6 °F 30.2 in Calm   2 mph 72% 0 in 234 W/m2
16:56 57.6 °F 48.9 °F 30.2 in WNW 0.9 mph 1 mph 73% 0 in 241 W/m2
17:01 57.6 °F 49.3 °F 30.2 in Calm   2 mph 74% 0 in 104 W/m2
17:06 57.2 °F 49.6 °F 30.2 in Calm     76% 0 in 40 W/m2
17:11 56.8 °F 49.6 °F 30.2 in WSW 0.9 mph 2 mph 77% 0 in 40 W/m2
17:16 56.5 °F 49.3 °F 30.2 in WSW 0.9 mph 2 mph 77% 0 in 37 W/m2
17:21 56.1 °F 49.3 °F 30.2 in Calm   2 mph 78% 0 in 35 W/m2
17:26 55.9 °F 49.8 °F 30.2 in Calm     80% 0 in 37 W/m2
17:31 55.8 °F 49.6 °F 30.2 in Calm   2 mph 80% 0 in 37 W/m2
17:36 55.6 °F 49.8 °F 30.2 in Calm     81% 0 in 40 W/m2
17:41 55.2 °F 49.5 °F 30.2 in Calm     81% 0 in 40 W/m2
17:46 55 °F 49.3 °F 30.2 in Calm     81% 0 in 37 W/m2
17:51 54.9 °F 49.5 °F 30.2 in Calm     82% 0 in 35 W/m2
17:56 54.9 °F 49.5 °F 30.2 in WSW 0.9 mph 1 mph 82% 0 in 35 W/m2
18:01 54.7 °F 49.6 °F 30.2 in WSW 0.9 mph 1 mph 83% 0 in 33 W/m2
18:06 54.3 °F 49.3 °F 30.2 in Calm   1 mph 83% 0 in 28 W/m2
18:12 54.1 °F 49.1 °F 30.2 in Calm     83% 0 in 25 W/m2
18:17 54.1 °F 49.5 °F 30.2 in WSW 2 mph 2 mph 84% 0 in 21 W/m2
18:22 54 °F 49.3 °F 30.2 in WSW 0.9 mph 2 mph 84% 0 in 18 W/m2
18:27 53.8 °F 49.1 °F 30.2 in Calm   1 mph 84% 0 in 16 W/m2
18:32 53.6 °F 48.9 °F 30.2 in WSW 0.9 mph 1 mph 84% 0 in 12 W/m2
18:37 53.2 °F 48.6 °F 30.2 in WSW 0.9 mph 2 mph 84% 0 in 11 W/m2
18:42 53.1 °F 48.7 °F 30.2 in WSW 2 mph 2 mph 85% 0 in 7 W/m2
18:47 52.9 °F 48.6 °F 30.2 in WSW 2 mph 2 mph 85% 0 in 5 W/m2
18:52 52.3 °F 48.2 °F 30.2 in WSW 2 mph 2 mph 86% 0 in 0 W/m2
18:57 52.2 °F 48 °F 30.2 in WSW 0.9 mph 1 mph 86% 0 in 0 W/m2
19:02 52 °F 48.2 °F 30.2 in WSW 0.9 mph 2 mph 87% 0 in 0 W/m2
19:07 51.6 °F 47.8 °F 30.2 in Calm   1 mph 87% 0 in 0 W/m2
19:12 51.4 °F 47.7 °F 30.2 in WSW 0.9 mph 1 mph 87% 0 in 0 W/m2
19:17 51.3 °F 47.8 °F 30.2 in Calm     88% 0 in 0 W/m2
19:22 51.1 °F 47.7 °F 30.2 in WSW 0.9 mph 2 mph 88% 0 in 0 W/m2
19:27 50.9 °F 47.5 °F 30.2 in Calm   1 mph 88% 0 in 0 W/m2
19:32 50.7 °F 47.3 °F 30.2 in Calm   1 mph 88% 0 in 0 W/m2
19:37 50.5 °F 47.1 °F 30.2 in Calm     88% 0 in 0 W/m2
19:42 50.4 °F 46.9 °F 30.2 in Calm     88% 0 in 0 W/m2
19:47 50.2 °F 46.8 °F 30.2 in Calm     88% 0 in 0 W/m2
19:52 49.6 °F 46.6 °F 30.2 in Calm     89% 0 in 0 W/m2
19:57 49.5 °F 46.4 °F 30.2 in Calm     89% 0 in 0 W/m2
20:02 49.3 °F 46.2 °F 30.2 in Calm     89% 0 in 0 W/m2
20:07 48.9 °F 45.9 °F 30.2 in Calm     89% 0 in 0 W/m2
20:12 48.7 °F 45.9 °F 30.2 in Calm     90% 0 in 0 W/m2
20:17 48.4 °F 45.5 °F 30.2 in Calm     90% 0 in 0 W/m2
20:22 48 °F 45.1 °F 30.2 in Calm     90% 0 in 0 W/m2
20:27 47.8 °F 45.3 °F 30.2 in Calm     91% 0 in 0 W/m2
20:32 47.8 °F 45.3 °F 30.2 in Calm     91% 0 in 0 W/m2
20:37 47.5 °F 45 °F 30.2 in Calm     91% 0 in 0 W/m2
20:42 47.3 °F 44.8 °F 30.2 in Calm     91% 0 in 0 W/m2
20:47 47.1 °F 44.6 °F 30.2 in Calm     91% 0 in 0 W/m2
20:52 46.9 °F 44.4 °F 30.2 in Calm     91% 0 in 0 W/m2
20:57 46.8 °F 44.2 °F 30.2 in Calm     91% 0 in 0 W/m2
21:02 46.6 °F 44.4 °F 30.2 in Calm     92% 0 in 0 W/m2
21:07 46.2 °F 44.1 °F 30.2 in Calm     92% 0 in 0 W/m2
21:12 46.2 °F 44.1 °F 30.2 in Calm     92% 0 in 0 W/m2
21:17 46 °F 43.9 °F 30.2 in Calm     92% 0 in 0 W/m2
21:22 45.9 °F 43.9 °F 30.2 in Calm     93% 0 in 0 W/m2
21:27 45.9 °F 43.9 °F 30.2 in Calm     93% 0 in 0 W/m2
21:32 45.7 °F 43.7 °F 30.2 in Calm     93% 0 in 0 W/m2
21:37 45.7 °F 43.7 °F 30.2 in Calm     93% 0 in 0 W/m2
21:42 45.5 °F 43.5 °F 30.2 in Calm     93% 0 in 0 W/m2
21:47 45.5 °F 43.5 °F 30.2 in Calm     93% 0 in 0 W/m2
21:52 45.3 °F 43.7 °F 30.2 in Calm     94% 0 in 0 W/m2
21:57 45.3 °F 43.7 °F 30.2 in Calm     94% 0 in 0 W/m2
22:02 45.3 °F 43.7 °F 30.2 in Calm     94% 0 in 0 W/m2
22:07 45.3 °F 43.7 °F 30.2 in Calm     94% 0 in 0 W/m2
22:12 45.1 °F 43.5 °F 30.2 in Calm     94% 0 in 0 W/m2
22:17 45.1 °F 43.5 °F 30.2 in Calm     94% 0 in 0 W/m2
22:22 45 °F 43.3 °F 30.2 in Calm     94% 0 in 0 W/m2
22:27 44.8 °F 43.2 °F 30.2 in Calm     94% 0 in 0 W/m2
22:32 44.6 °F 43 °F 30.2 in Calm     94% 0 in 0 W/m2
22:37 44.4 °F 42.8 °F 30.2 in Calm     94% 0 in 0 W/m2
22:42 44.4 °F 42.8 °F 30.2 in Calm     94% 0 in 0 W/m2
22:47 44.2 °F 42.6 °F 30.2 in Calm     94% 0 in 0 W/m2
22:52 44.2 °F 42.6 °F 30.2 in Calm     94% 0 in 0 W/m2
22:57 44.1 °F 42.4 °F 30.2 in Calm     94% 0 in 0 W/m2
23:02 44.1 °F 42.4 °F 30.2 in Calm     94% 0 in 0 W/m2
23:07 44.2 °F 43 °F 30.2 in Calm     95% 0 in 0 W/m2
23:12 44.2 °F 43 °F 30.2 in Calm     95% 0 in 0 W/m2
23:17 44.4 °F 43.2 °F 30.2 in Calm     95% 0 in 0 W/m2
23:22 44.2 °F 43 °F 30.2 in Calm     95% 0 in 0 W/m2
23:27 44.2 °F 43 °F 30.2 in Calm     95% 0 in 0 W/m2
23:32 44.2 °F 43 °F 30.2 in Calm     95% 0 in 0 W/m2
23:38 44.2 °F 43 °F 30.2 in Calm     95% 0 in 0 W/m2
23:43 44.1 °F 42.8 °F 30.2 in Calm     95% 0 in 0 W/m2
23:48 44.1 °F 42.8 °F 30.2 in Calm     95% 0 in 0 W/m2
23:53 43.9 °F 42.6 °F 30.2 in Calm     95% 0 in 0 W/m2
23:58 43.7 °F 42.4 °F 30.2 in Calm     95% 0 in 0 W/m2
Juneau County Weather
Compliments of Weather Underground - 4 mb